Hlavní strana
METAR-TAF:

METAR-TAF

Letiště :

Oran, Alžírsko

zeměpisná šířka: 35-38N, zeměpisná délka: 000-36W, výška: 90 m

Aktuální stav počasí

Zpráva byla vytvořena před 36 minutami, v 23:00 UTC
Severovýchodní vítr 5 kt
Teplota 13°C
Vlhkost vzduchu 88%
Tlak 1028 hPa
Viditelnost: 8000 m
Polojasno ve výšce 2600 ft

METAR: DAOO 242300Z 04005KT 8000 SCT026 13/11 Q1028

Čas: 00:36 (23:36 UTC)

Předpověď počasí

Zpráva byla vytvořena před 6 hodinami a 36 minutami, v 17:00 UTC
Předpověď platná od 24 v 18 UTC do 25 v 18 UTC
Severní vítr 10 kt
Viditelnost 10 km a více
Polojasno ve výšce 2600 ft
Změna
od 24 v 20 UTC do 24 v 22 UTC
vítr z různých směrů 2 kt
Změna
od 25 v 10 UTC do 25 v 12 UTC
Východní vítr 10 kt

TAF: DAOO 241700Z 2418/2518 36010KT 9999 SCT026 BECMG 2420/2422 VRB02KT BECMG 2510/2512 09010KT

Stav a předpovědi počasí z více než 4 000 letišť (zprávy METAR a TAF).

Červené a žluté tečky na mapě představují dostupné meteorologické stanice.

Když kurzor umístíte na tečku, zobrazí se název stanice.

Pak kliknutím zobrazíte stav a předpověď počasí.

Chcete-li změnit mapu, kliknutím na zelené tlačítko se znaménkem +mapu přiblížíte, kliknutím na zelené tlačítko se znaménkem – mapu oddálíte a kliknutím na zelené šipky přejdete na sousední mapy.


METAR-TAF: